• Join FlightAware (Why Join?)
  • Login
  • US Flag 
Gobble Gobble! 
01:33PM EST


 

Airport Tracker/Info


-or-


 

Live Flight TrackerFlight Track Log ✈ UPS1338 ✈ 31-Jul-2014 ✈ KSDF - KPIE

Flight Track Log - Related Links

Times and Time Zones

All times are in EDT time to prevent confusion due to time zone crossing. See the UPS1338 flight status page for this flight to view local times or setup timezone preferences in your user account.

Time Position Orientation Groundspeed Altitude Reporting Facility
EDT Latitude Longitude Course Direction KTS MPH feet Rate Location/Type
05:07AM 38.1005 -85.6981 163° South 266 306 3,800  Level FlightAware ADS-B (KBRY)
05:08AM 38.0391 -85.6460 142° Southeast 279 321 8,100 3,660 Climbing FlightAware ADS-B (KBRY)
05:09AM 37.9661 -85.5981 166° South 318 366 11,200 2,340 Climbing FlightAware ADS-B (KBRY)
05:10AM 37.8679 -85.5641 165° South 400 460 12,800 2,400 Climbing FlightAware ADS-B (KBRY)
05:11AM 37.7614 -85.5305 166° South 415 478 16,000 2,880 Climbing FlightAware ADS-B (KBRY)
05:12AM 37.6539 -85.4962 166° South 437 503 18,600 2,640 Climbing FlightAware ADS-B (KBRY)
05:13AM 37.5296 -85.4556 165° South 451 519 21,300 2,520 Climbing FlightAware ADS-B (KBRY)
05:14AM 37.3987 -85.4147 166° South 465 535 23,700 1,980 Climbing FlightAware ADS-B (KBRY)
05:15AM 37.2773 -85.3752 165° South 488 562 25,400 1,740 Climbing FlightAware ADS-B (KBRY)
05:17AM 37.0029 -85.2868 166° South 508 585 29,000 1,800 Climbing FlightAware ADS-B (KBRY)
05:17AM 36.9307 -85.2638 166° South 508 585 30,000 960 Climbing FlightAware ADS-B (KBRY)
05:21AM 36.4477 -85.1106 166° South 492 566 33,000 660 Climbing FlightAware ADS-B (KMDQ)
05:22AM 36.3530 -85.0812 166° South 489 563 33,000  Level FlightAware ADS-B (KBRY)
05:23AM 36.1935 -85.0315 166° South 488 562 33,000  Level FlightAware ADS-B (KMDQ)
05:26AM 35.8171 -84.9141 166° South 489 563 33,000  Level FlightAware ADS-B (KMDQ)
05:27AM 35.7075 -84.8805 166° South 489 563 33,000  Level FlightAware ADS-B (KMDQ)
05:29AM 35.3981 -84.7860 166° South 492 566 33,000  Level FlightAware ADS-B (KMDQ)
05:30AM 35.3171 -84.7612 166° South 493 567 33,000  Level FlightAware ADS-B (KMDQ)
05:30AM 35.2554 -84.7424 166° South 494 568 33,000  Level FlightAware ADS-B (KMDQ)
05:32AM 35.0594 -84.6858 166° South 491 565 33,000  Level Atlanta Center
05:33AM 34.9261 -84.6467 166° South 491 565 33,000  Level Atlanta Center
05:34AM 34.7928 -84.6078 167° South 491 565 33,000  Level Atlanta Center
05:35AM 34.6508 -84.5614 165° South 491 565 33,000  Level Atlanta Center
05:36AM 34.5175 -84.5203 166° South 483 556 33,000  Level Atlanta Center
05:37AM 34.3861 -84.4817 166° South 483 556 33,000  Level Atlanta Center
05:38AM 34.2550 -84.4408 166° South 488 562 33,000  Level Atlanta Center
05:39AM 34.1153 -84.4025 167° South 494 568 33,000  Level Atlanta Center
05:40AM 33.9817 -84.3619 166° South 494 568 33,000  Level Atlanta Center
05:41AM 33.8544 -84.3239 166° South 489 563 33,000  Level Atlanta Center
05:42AM 33.7208 -84.2861 167° South 489 563 33,000  Level Atlanta Center
05:43AM 33.5894 -84.2458 166° South 489 563 33,000  Level Atlanta Center
05:44AM 33.4853 -84.2156 166° South 489 563 33,000  Level Atlanta Center
05:45AM 33.3411 -84.1756 167° South 484 557 33,000  Level Atlanta Center
05:46AM 33.2119 -84.1381 166° South 484 557 33,000  Level Atlanta Center
05:47AM 33.0825 -84.1008 166° South 489 563 33,000  Level Atlanta Center
05:48AM 32.9531 -84.0661 167° South 489 563 33,000  Level Atlanta Center
05:49AM 32.8236 -84.0239 165° South 484 557 33,000  Level Atlanta Center
05:50AM 32.6922 -83.9894 168° South 484 557 33,000  Level Atlanta Center
05:52AM 32.4525 -83.9192 166° South 498 573 33,000  Level Jacksonville Center
05:53AM 32.3233 -83.8833 167° South 487 560 33,000  Level Jacksonville Center
05:54AM 32.1942 -83.8450 166° South 487 560 33,000  Level Jacksonville Center
05:55AM 32.0631 -83.8094 167° South 487 560 33,000  Level Jacksonville Center
05:56AM 31.9358 -83.7714 166° South 487 560 33,000  Level Jacksonville Center
05:57AM 31.7942 -83.7286 166° South 487 560 33,000 -60 Level Jacksonville Center
05:58AM 31.6650 -83.6933 167° South 487 560 32,900  Descending Jacksonville Center
06:03AM 31.0054 -83.5451 170° South 482 555 33,000  Climbing FlightAware ADS-B (KTLH)
06:07AM 30.3527 -83.4058 170° South 485 558 33,000  Level FlightAware ADS-B (KTLH)
06:09AM 30.2133 -83.3781 170° South 486 559 33,000  Level Jacksonville Center
06:10AM 30.0819 -83.3486 169° South 486 559 33,000  Level Jacksonville Center
06:11AM 29.9506 -83.3217 170° South 486 559 33,000  Level Jacksonville Center
06:12AM 29.8169 -83.2972 171° South 486 559 33,000  Level Jacksonville Center
06:13AM 29.6981 -83.2728 170° South 486 559 33,000 -300 Level Jacksonville Center
06:14AM 29.5561 -83.2411 169° South 478 550 32,500 -1,080 Descending Jacksonville Center
06:15AM 29.4353 -83.2144 169° South 478 550 30,900 -1,860 Descending Jacksonville Center
06:16AM 29.3036 -83.1878 170° South 483 556 28,800 -6,000 Descending Jacksonville Center
06:17AM 29.1744 -83.1614 170° South 483 556 19,000 -3,900 Descending Jacksonville Center
06:18AM 29.0450 -83.1325 169° South 483 556 21,000  Climbing Jacksonville Center
06:19AM 28.9219 -83.1083 170° South 471 542 19,100 -2,340 Descending Jacksonville Center
06:20AM 28.8008 -83.0822 169° South 452 520 16,400 -2,100 Descending Jacksonville Center
06:22AM 28.5667 -83.0333 170° South 396 456 13,000 -1,620 Descending Tampa TRACON
06:23AM 28.4667 -83.0167 172° South 390 449 11,700 -1,380 Descending Tampa TRACON
06:24AM 28.3667 -82.9667 156° South 342 394 10,300 -1,080 Descending Tampa TRACON
06:25AM 28.2833 -82.9333 161° South 295 339 9,600 -1,080 Descending Tampa TRACON
06:26AM 28.2167 -82.9000 156° South 288 331 8,200 -1,440 Descending Tampa TRACON
06:27AM 28.1500 -82.8667 156° South 278 320 6,700 -1,620 Descending Tampa TRACON
06:28AM 28.0833 -82.8333 156° South 264 304 5,000 -1,920 Descending Tampa TRACON
06:29AM 28.0000 -82.8167 170° South 266 306 2,900 -1,200 Descending Tampa TRACON
06:30AM 27.9333 -82.7833 156° South 227 261 2,600 -180 Descending Tampa TRACON
06:31AM 27.8667 -82.7833 180° South 218 251 2,600 -300 Level Tampa TRACON
06:32AM 27.8167 -82.7667 164° South 214 246 2,100 -300 Descending Tampa TRACON
06:33AM 27.8000 -82.7167 111° Southeast 171 197 2,000 -420 Descending Tampa TRACON
06:34AM 27.8333 -82.6833 41° Northeast 164 189 1,300 -720 Descending Tampa TRACON
06:34AM 27.8667 -82.6833 360° North 124 143 700 -720 Descending Tampa TRACON